Missoula, MT

8:05 PM MST on February 12, 2016 (GMT -0700)
Missoula International | | Change Station
CLOSE
Current Station
Airport
Location: Missoula,
Elevation: 3189 ft
Nearby Weather Stations

Elev 3189 ft 46.92 °N, 114.09 °W | Updated 12 minutes ago

Overcast
Overcast
38 °F
Feels Like 38 °F
N
0
Wind Variable Wind from North

Today
High -- | Low -- °F
--% Chance of Precip.
Yesterday
High -- | Low -- °F
Precip. -- in
Pressure 30.17 in
Visibility 9.0 miles
Clouds Overcast 7500 ft
Dew Point 36 °F
Humidity 93%
Rainfall 0.06 in
Snow Depth Not available.
7:46 AM 5:55 PM
Waxing Crescent, 26% visible
METAR KMSO 130253Z 00000KT 9SM OVC075 03/02 A3011 RMK AO2 SLP216 T00330022 58007 $
Pressure 30.17 in
Visibility 9.0 miles
Clouds Overcast 7500 ft
Dew Point 36 °F
Humidity 93%
Rainfall 0.06 in
Snow Depth Not available.
7:46 AM 5:55 PM
Waxing Crescent, 26% visible
METAR KMSO 130253Z 00000KT 9SM OVC075 03/02 A3011 RMK AO2 SLP216 T00330022 58007 $

10-Day Weather Forecast

Almanac

Astronomy

Feb. 12, 2016 Rise Set
Actual Time
Civil Twilight
Nautical Twilight
Astronomical Twilight
Moon
Length of Visible Light
Length of Day
Tomorrow will be .
, % of the Moon is Illuminated

Today's Extremes

State Highs State Lows

Community

WunderPhotos

Upload Photos

1,892,478 photos uploaded!

WunderBlog® & News

Nearby

Air Quality

  Air Quality AQ Index Pollutant
Not available.

Snow Depth

Station Depth Elevation

Earthquake Activity

City Distance Mag. Time & Date
Minimum magnitude displayed is 2.5.

Coastal Water Temperatures

Place Temperature

Stations

Nearby Weather Stations

Station Location Temp. Windchill Dew Point Humidity Wind Precip. Elev Updated Type
                   

Watches & Warnings

There are currently no watches in effect.